Time;durP1;ratioP1;P1;durP2;ratioP2;P2;SDS_P1;SDS_P2;PMS_P1;PMS_P2;Temp;Humidity;BMP_temperature;BMP_pressure;BME280_temperature;BME280_humidity;BME280_pressure;Samples;Min_cycle;Max_cycle;Signal;HPM_P1;HPM_P2
2023/03/03 00:01:29;;;;;;;70.90;44.15;;;1.90;99.90;;;;;;6210152;28;20069;-79
2023/03/03 00:04:31;;;;;;;73.43;39.83;;;1.80;99.90;;;;;;6212049;28;20058;-79
2023/03/03 00:07:34;;;;;;;62.72;37.42;;;1.80;99.90;;;;;;6213563;28;20050;-79
2023/03/03 00:10:35;;;;;;;79.20;46.80;;;1.70;99.90;;;;;;6204953;28;20424;-79
2023/03/03 00:13:45;;;;;;;74.80;46.50;;;1.60;99.90;;;;;;6205774;28;20481;-80
2023/03/03 00:16:48;;;;;;;87.75;50.05;;;1.60;99.90;;;;;;6205250;28;20061;-79
2023/03/03 00:19:50;;;;;;;78.63;48.13;;;1.60;99.90;;;;;;6203939;28;20420;-79
2023/03/03 00:22:53;;;;;;;82.22;50.40;;;1.50;99.90;;;;;;6204738;28;20079;-79
2023/03/03 00:25:55;;;;;;;91.13;48.55;;;1.50;99.90;;;;;;6204020;28;20053;-79
2023/03/03 00:28:57;;;;;;;85.07;48.83;;;1.50;99.90;;;;;;6206709;28;20058;-79
2023/03/03 00:32:22;;;;;;;79.78;41.97;;;1.50;99.90;;;;;;6203803;28;20059;-79
2023/03/03 00:35:26;;;;;;;81.72;46.38;;;1.50;99.90;;;;;;6199940;28;20054;-79
2023/03/03 00:38:29;;;;;;;75.25;48.50;;;1.50;99.90;;;;;;6210245;28;20042;-80
2023/03/03 00:41:31;;;;;;;84.45;49.00;;;1.40;99.90;;;;;;6208316;28;20053;-80
2023/03/03 00:44:41;;;;;;;81.50;51.63;;;1.30;99.90;;;;;;6208846;28;20046;-81
2023/03/03 00:47:44;;;;;;;102.28;57.88;;;1.30;99.90;;;;;;6212980;28;20049;-79
2023/03/03 00:50:45;;;;;;;84.65;53.90;;;1.20;99.90;;;;;;6211933;28;20042;-81
2023/03/03 00:53:49;;;;;;;81.03;47.88;;;1.20;99.90;;;;;;6214756;28;20042;-81
2023/03/03 00:56:51;;;;;;;91.15;52.40;;;1.20;99.90;;;;;;6211354;28;20049;-80
2023/03/03 00:59:53;;;;;;;87.85;52.08;;;1.20;99.90;;;;;;6207359;28;20050;-79
2023/03/03 01:02:55;;;;;;;85.22;50.30;;;1.10;99.90;;;;;;6207315;28;20072;-79
2023/03/03 01:05:56;;;;;;;77.83;44.77;;;1.10;99.90;;;;;;6213284;28;20081;-80
2023/03/03 01:08:59;;;;;;;86.03;50.00;;;1.00;99.90;;;;;;6221474;28;20416;-80
2023/03/03 01:12:01;;;;;;;85.23;49.63;;;0.90;99.90;;;;;;6212417;28;20420;-80
2023/03/03 01:15:03;;;;;;;92.93;53.10;;;0.90;99.90;;;;;;6210874;28;20057;-79
2023/03/03 01:18:05;;;;;;;82.00;49.13;;;0.90;99.90;;;;;;6208226;28;20054;-79
2023/03/03 01:21:07;;;;;;;84.20;49.13;;;0.80;99.90;;;;;;6209428;28;20069;-77
2023/03/03 01:24:10;;;;;;;83.83;49.20;;;0.80;99.90;;;;;;6207447;28;20053;-78
2023/03/03 01:27:12;;;;;;;84.30;49.23;;;0.80;99.90;;;;;;6210012;28;20042;-79
2023/03/03 01:30:14;;;;;;;86.83;52.77;;;0.80;99.90;;;;;;6209554;28;20050;-78
2023/03/03 01:33:17;;;;;;;75.10;47.57;;;0.70;99.90;;;;;;6215659;28;20053;-79
2023/03/03 01:36:23;;;;;;;85.57;46.07;;;0.70;99.90;;;;;;6225489;28;20056;-79
2023/03/03 01:39:26;;;;;;;74.70;44.87;;;0.60;99.90;;;;;;6220340;28;20048;-80
2023/03/03 01:42:29;;;;;;;85.37;47.23;;;0.60;99.90;;;;;;6206703;28;20059;-79
2023/03/03 01:45:37;;;;;;;87.13;49.43;;;0.60;99.90;;;;;;6211792;28;20058;-81
2023/03/03 01:48:42;;;;;;;84.43;49.50;;;0.60;99.90;;;;;;6207558;28;20076;-80
2023/03/03 01:51:48;;;;;;;81.20;47.80;;;0.50;99.90;;;;;;6209916;28;20046;-80
2023/03/03 01:54:55;;;;;;;87.27;50.43;;;0.50;99.90;;;;;;6213525;28;21628;-79
2023/03/03 01:58:01;;;;;;;76.43;45.63;;;0.40;99.90;;;;;;6205055;28;20062;-79
2023/03/03 02:01:07;;;;;;;81.87;48.87;;;0.40;99.90;;;;;;6207000;28;20050;-80
2023/03/03 02:04:09;;;;;;;76.13;44.97;;;0.20;99.90;;;;;;6209501;28;20049;-81
2023/03/03 02:07:11;;;;;;;84.83;45.53;;;0.20;99.90;;;;;;6215229;28;20052;-80
2023/03/03 02:10:17;;;;;;;85.97;45.27;;;0.20;99.90;;;;;;6223042;28;20039;-82
2023/03/03 02:13:19;;;;;;;74.87;44.93;;;0.10;99.90;;;;;;6213417;28;20061;-78
2023/03/03 02:16:20;;;;;;;90.33;50.57;;;0.10;99.90;;;;;;6217431;28;20052;-80
2023/03/03 02:19:32;;;;;;;82.53;46.70;;;0.10;99.90;;;;;;6236968;28;20042;-79
2023/03/03 02:22:43;;;;;;;85.00;48.20;;;0.10;99.90;;;;;;6209480;28;20045;-80
2023/03/03 02:25:54;;;;;;;83.07;45.07;;;0.00;99.90;;;;;;6206449;28;20425;-79
2023/03/03 02:28:57;;;;;;;85.37;48.93;;;0.10;99.90;;;;;;6207907;28;20054;-80
2023/03/03 02:31:59;;;;;;;84.90;49.60;;;0.00;99.90;;;;;;6208013;28;20041;-79
2023/03/03 02:35:00;;;;;;;81.03;46.57;;;0.00;99.90;;;;;;6208118;28;20438;-80
2023/03/03 02:38:11;;;;;;;87.33;47.13;;;0.00;99.90;;;;;;6211065;28;20501;-79
2023/03/03 02:41:21;;;;;;;95.10;47.47;;;0.00;99.90;;;;;;6207357;28;20050;-80
2023/03/03 02:44:26;;;;;;;86.97;47.17;;;0.00;99.90;;;;;;6204854;28;20039;-80
2023/03/03 02:47:28;;;;;;;85.87;48.03;;;-0.10;99.90;;;;;;6205575;28;20419;-79
2023/03/03 02:50:30;;;;;;;84.97;50.27;;;0.00;99.90;;;;;;6207506;28;20413;-79
2023/03/03 02:53:31;;;;;;;80.20;46.50;;;0.00;99.90;;;;;;6205865;28;20052;-79
2023/03/03 02:56:33;;;;;;;82.13;46.70;;;-0.10;99.90;;;;;;6208281;28;20045;-79
2023/03/03 02:59:37;;;;;;;85.93;46.07;;;-0.10;99.90;;;;;;6200926;28;20046;-80
2023/03/03 03:02:38;;;;;;;84.33;47.27;;;-0.10;99.90;;;;;;6205502;28;20052;-79
2023/03/03 03:05:40;;;;;;;78.43;45.87;;;-0.20;99.90;;;;;;6206125;28;20061;-80
2023/03/03 03:08:42;;;;;;;90.07;46.00;;;-0.30;99.90;;;;;;6207846;28;20073;-80
2023/03/03 03:11:43;;;;;;;87.87;48.17;;;-0.30;99.90;;;;;;6219436;28;20037;-80
2023/03/03 03:14:47;;;;;;;84.93;46.40;;;-0.30;99.90;;;;;;6209882;28;20066;-80
2023/03/03 03:17:48;;;;;;;79.67;46.57;;;-0.30;99.90;;;;;;6206791;28;20056;-79
2023/03/03 03:20:50;;;;;;;83.00;45.77;;;-0.30;99.90;;;;;;6208189;28;20099;-80
2023/03/03 03:23:52;;;;;;;76.77;46.43;;;-0.20;99.90;;;;;;6210394;28;20056;-80
2023/03/03 03:26:53;;;;;;;74.87;43.67;;;-0.30;99.90;;;;;;6207210;28;20046;-81
2023/03/03 03:29:56;;;;;;;82.07;47.30;;;-0.30;99.90;;;;;;6207490;28;20058;-80
2023/03/03 03:32:58;;;;;;;72.20;43.67;;;-0.40;99.90;;;;;;6210287;28;20601;-78
2023/03/03 03:36:01;;;;;;;74.97;41.90;;;-0.40;99.90;;;;;;6209660;28;20103;-79
2023/03/03 03:39:05;;;;;;;75.07;42.57;;;-0.50;99.90;;;;;;6206825;28;20204;-80
2023/03/03 03:42:06;;;;;;;74.37;42.80;;;-0.60;99.90;;;;;;6206612;28;20046;-80
2023/03/03 03:45:14;;;;;;;95.90;46.40;;;-0.60;99.90;;;;;;6208429;28;20061;-78
2023/03/03 03:48:16;;;;;;;79.70;43.67;;;-0.60;99.90;;;;;;6206725;28;20050;-82
2023/03/03 03:51:18;;;;;;;80.13;43.53;;;-0.60;99.90;;;;;;6208436;28;20406;-81
2023/03/03 03:54:19;;;;;;;74.17;39.87;;;-0.70;99.90;;;;;;6203589;28;20711;-81
2023/03/03 03:57:21;;;;;;;80.87;43.80;;;-0.70;99.90;;;;;;6207252;28;20053;-81
2023/03/03 04:00:25;;;;;;;83.07;41.47;;;-0.70;99.90;;;;;;6209509;28;20042;-81
2023/03/03 04:03:27;;;;;;;71.17;39.53;;;-0.80;99.90;;;;;;6204939;28;20049;-81
2023/03/03 04:06:29;;;;;;;74.87;41.97;;;-0.80;99.90;;;;;;6206505;28;20050;-82
2023/03/03 04:09:30;;;;;;;75.23;40.47;;;-0.80;99.90;;;;;;6211151;28;20046;-80
2023/03/03 04:12:37;;;;;;;65.10;40.80;;;-0.80;99.90;;;;;;6214872;28;20041;-81
2023/03/03 04:15:40;;;;;;;72.53;39.50;;;-0.80;99.90;;;;;;6211508;28;20444;-81
2023/03/03 04:18:42;;;;;;;73.37;44.10;;;-0.90;99.90;;;;;;6205695;28;20424;-81
2023/03/03 04:21:43;;;;;;;70.60;40.97;;;-0.90;99.90;;;;;;6209391;28;20713;-81
2023/03/03 04:24:47;;;;;;;70.97;42.70;;;-0.90;99.90;;;;;;6209554;28;20050;-81
2023/03/03 04:27:51;;;;;;;75.53;43.20;;;-0.80;99.90;;;;;;6211706;28;20132;-80
2023/03/03 04:30:54;;;;;;;74.03;38.93;;;-0.80;99.90;;;;;;6208910;28;20076;-81
2023/03/03 04:33:56;;;;;;;74.27;41.73;;;-0.80;99.90;;;;;;6208412;28;20042;-81
2023/03/03 04:36:57;;;;;;;95.80;43.33;;;-0.80;99.90;;;;;;6209982;28;20050;-80
2023/03/03 04:39:59;;;;;;;73.30;39.83;;;-0.80;99.90;;;;;;6212955;28;20053;-80
2023/03/03 04:43:01;;;;;;;75.80;41.87;;;-0.80;99.90;;;;;;6210323;28;20050;-80
2023/03/03 04:46:04;;;;;;;81.03;43.77;;;-0.80;99.90;;;;;;6208978;28;20042;-81
2023/03/03 04:49:07;;;;;;;74.10;37.97;;;-0.80;99.90;;;;;;6211328;28;20757;-81
2023/03/03 04:52:09;;;;;;;74.03;39.60;;;-0.90;99.90;;;;;;6212431;28;20192;-79
2023/03/03 04:55:11;;;;;;;83.27;42.33;;;-0.90;99.90;;;;;;6208473;28;20073;-81
2023/03/03 04:58:13;;;;;;;77.30;39.97;;;-0.90;99.90;;;;;;6215528;28;20062;-81
2023/03/03 05:01:18;;;;;;;74.37;45.00;;;-0.80;99.90;;;;;;6221177;28;20046;-80
2023/03/03 05:04:19;;;;;;;72.40;39.63;;;-0.90;99.90;;;;;;6212368;28;20045;-81
2023/03/03 05:07:21;;;;;;;74.83;40.60;;;-0.90;99.90;;;;;;6210773;28;20105;-81
2023/03/03 05:10:23;;;;;;;78.17;39.40;;;-0.90;99.90;;;;;;6211879;28;20057;-81
2023/03/03 05:13:25;;;;;;;64.33;37.83;;;-0.80;99.90;;;;;;6217752;28;20056;-80
2023/03/03 05:16:29;;;;;;;75.03;40.50;;;-0.80;99.90;;;;;;6223974;28;20049;-81
2023/03/03 05:19:30;;;;;;;75.50;40.43;;;-0.80;99.90;;;;;;6210713;28;20042;-81
2023/03/03 05:22:32;;;;;;;77.27;41.57;;;-0.70;99.90;;;;;;6208967;28;20045;-80
2023/03/03 05:25:34;;;;;;;72.07;38.80;;;-0.70;99.90;;;;;;6209031;28;20053;-81
2023/03/03 05:28:35;;;;;;;69.83;36.50;;;-0.60;99.90;;;;;;6210121;28;20052;-81
2023/03/03 05:31:38;;;;;;;66.50;34.03;;;-0.60;99.90;;;;;;6206090;28;20053;-80
2023/03/03 05:34:40;;;;;;;72.67;40.70;;;-0.60;99.90;;;;;;6209133;28;20046;-80
2023/03/03 05:37:46;;;;;;;62.23;35.90;;;-0.50;99.90;;;;;;6208789;28;20061;-83
2023/03/03 05:40:48;;;;;;;73.83;40.03;;;-0.50;99.90;;;;;;6212639;28;20088;-80
2023/03/03 05:43:50;;;;;;;70.03;38.40;;;-0.40;99.90;;;;;;6211532;28;20045;-81
2023/03/03 05:46:53;;;;;;;67.97;40.63;;;-0.30;99.90;;;;;;6211544;28;20516;-81
2023/03/03 05:49:54;;;;;;;71.43;39.80;;;-0.10;99.90;;;;;;6207119;28;20046;-81
2023/03/03 05:52:56;;;;;;;73.97;39.57;;;0.00;99.90;;;;;;6207191;28;20042;-83
2023/03/03 05:55:58;;;;;;;71.77;37.57;;;0.10;99.90;;;;;;6207556;28;20064;-82
2023/03/03 05:58:59;;;;;;;71.30;37.40;;;0.10;99.90;;;;;;6211100;28;20046;-81
2023/03/03 06:02:02;;;;;;;68.60;40.03;;;0.30;99.90;;;;;;6209927;28;20060;-82
2023/03/03 06:05:05;;;;;;;68.77;37.07;;;0.50;99.90;;;;;;6209582;28;20129;-81
2023/03/03 06:08:06;;;;;;;79.90;43.13;;;0.50;99.90;;;;;;6210773;28;20048;-81
2023/03/03 06:11:08;;;;;;;75.83;39.80;;;0.70;99.90;;;;;;6209541;28;20046;-81
2023/03/03 06:14:10;;;;;;;65.93;38.03;;;0.80;99.90;;;;;;6215490;28;20037;-81
2023/03/03 06:17:13;;;;;;;65.90;37.80;;;0.90;99.90;;;;;;6222973;28;20050;-81
2023/03/03 06:20:15;;;;;;;64.43;36.23;;;0.90;99.90;;;;;;6208344;28;20053;-80
2023/03/03 06:23:17;;;;;;;64.93;36.07;;;1.00;99.90;;;;;;6207936;28;20053;-83
2023/03/03 06:26:18;;;;;;;68.30;41.00;;;1.10;99.90;;;;;;6211086;28;20045;-80
2023/03/03 06:29:20;;;;;;;64.47;37.67;;;1.10;99.90;;;;;;6207895;28;20042;-82
2023/03/03 06:32:23;;;;;;;71.47;37.73;;;1.10;99.90;;;;;;6202427;28;20057;-81
2023/03/03 06:35:25;;;;;;;54.77;34.53;;;1.20;99.90;;;;;;6209250;28;20045;-81
2023/03/03 06:38:26;;;;;;;59.77;34.93;;;1.30;99.90;;;;;;6207900;28;20134;-81
2023/03/03 06:41:28;;;;;;;57.47;32.67;;;1.30;99.90;;;;;;6208265;28;20079;-80
2023/03/03 06:44:30;;;;;;;63.00;35.22;;;1.40;99.90;;;;;;6206927;28;20047;-81
2023/03/03 06:47:33;;;;;;;58.50;35.90;;;1.40;99.90;;;;;;6207728;28;20061;-81
2023/03/03 06:50:35;;;;;;;54.30;33.15;;;1.50;99.90;;;;;;6206991;28;20046;-79
2023/03/03 06:53:36;;;;;;;55.00;33.60;;;1.50;99.90;;;;;;6208693;28;20034;-80
2023/03/03 06:56:38;;;;;;;56.60;32.00;;;1.60;99.90;;;;;;6204684;28;20050;-80
2023/03/03 06:59:41;;;;;;;60.22;34.05;;;1.70;99.90;;;;;;6204201;28;20053;-82
2023/03/03 07:02:44;;;;;;;50.28;30.30;;;1.80;99.90;;;;;;6225987;23;20424;-78
2023/03/03 07:05:46;;;;;;;58.85;33.47;;;1.90;99.90;;;;;;6171873;28;20043;-78
2023/03/03 07:08:47;;;;;;;47.08;29.90;;;2.00;99.90;;;;;;6174952;28;20265;-78
2023/03/03 07:11:49;;;;;;;46.78;29.90;;;2.10;99.90;;;;;;6184046;28;20511;-78
2023/03/03 07:14:55;;;;;;;51.22;30.00;;;2.20;99.90;;;;;;6169145;28;20130;-78
2023/03/03 07:17:58;;;;;;;50.65;29.35;;;2.30;99.90;;;;;;6156305;28;20070;-79
2023/03/03 07:21:06;;;;;;;45.45;26.52;;;2.40;99.90;;;;;;6152324;28;20047;-78
2023/03/03 07:24:22;;;;;;;48.40;27.92;;;2.60;99.90;;;;;;6153503;28;20161;-79
2023/03/03 07:27:25;;;;;;;46.97;26.45;;;2.70;99.90;;;;;;6166901;28;20073;-79
2023/03/03 07:30:29;;;;;;;49.60;29.25;;;2.80;99.90;;;;;;6176467;28;20046;-79
2023/03/03 07:33:37;;;;;;;47.10;26.02;;;3.00;99.90;;;;;;6174403;28;20054;-79
2023/03/03 07:36:39;;;;;;;;;;;3.10;99.90;;;;;;6174818;28;20054;-79
2023/03/03 07:39:44;;;;;;;45.03;27.33;;;3.20;99.90;;;;;;6175385;28;20349;-79
2023/03/03 07:42:46;;;;;;;55.13;29.65;;;3.30;99.90;;;;;;6175041;28;20043;-79
2023/03/03 07:45:48;;;;;;;49.58;30.25;;;3.50;99.90;;;;;;6175916;28;20066;-79
2023/03/03 07:48:52;;;;;;;49.83;30.98;;;3.60;99.90;;;;;;6177152;28;20059;-79
2023/03/03 07:51:56;;;;;;;42.92;28.30;;;3.70;99.90;;;;;;6176201;28;20053;-79
2023/03/03 07:55:00;;;;;;;47.33;28.17;;;3.90;99.90;;;;;;6176053;28;20046;-79
2023/03/03 07:58:21;;;;;;;61.58;38.88;;;4.00;99.90;;;;;;6176379;28;20047;-79
2023/03/03 08:01:39;;;;;;;54.95;31.55;;;4.20;99.90;;;;;;6178385;28;20095;-79
2023/03/03 08:04:49;;;;;;;53.85;32.63;;;4.30;99.90;;;;;;6178322;28;20057;-79
2023/03/03 08:07:51;;;;;;;53.65;34.38;;;4.50;99.90;;;;;;6177479;28;20051;-79
2023/03/03 08:10:54;;;;;;;61.35;33.33;;;4.60;99.90;;;;;;6177630;28;20066;-79
2023/03/03 08:13:56;;;;;;;64.82;38.22;;;4.70;99.90;;;;;;6179405;28;20046;-79
2023/03/03 08:16:58;;;;;;;59.55;34.58;;;4.80;99.90;;;;;;6134634;28;20058;-80
2023/03/03 08:20:02;;;;;;;62.08;37.05;;;4.90;99.90;;;;;;6166233;28;20054;-79
2023/03/03 08:23:04;;;;;;;56.95;36.55;;;5.00;99.90;;;;;;6174079;28;20062;-79
2023/03/03 08:26:06;;;;;;;52.78;32.42;;;5.10;99.90;;;;;;6173698;28;20130;-80
2023/03/03 08:29:07;;;;;;;66.53;34.65;;;5.20;99.90;;;;;;6174898;28;20064;-79
2023/03/03 08:32:09;;;;;;;58.35;35.28;;;5.30;99.90;;;;;;6151278;28;20050;-80
2023/03/03 08:35:12;;;;;;;64.00;37.22;;;5.30;99.90;;;;;;6144973;28;20052;-80
2023/03/03 08:38:16;;;;;;;64.63;42.78;;;5.40;99.90;;;;;;6146284;28;20051;-80
2023/03/03 08:41:18;;;;;;;64.82;37.85;;;5.60;99.90;;;;;;6170615;28;20059;-80
2023/03/03 08:44:20;;;;;;;64.45;36.33;;;5.90;99.90;;;;;;6149762;28;20047;-80
2023/03/03 08:47:22;;;;;;;66.28;37.65;;;6.30;99.90;;;;;;6157347;28;20058;-78
2023/03/03 08:50:25;;;;;;;61.25;39.92;;;6.60;99.90;;;;;;6159942;28;20050;-80
2023/03/03 08:53:27;;;;;;;53.90;35.90;;;6.70;99.90;;;;;;6136527;28;20048;-80
2023/03/03 08:56:29;;;;;;;59.90;38.17;;;6.90;99.90;;;;;;6143824;28;20137;-80
2023/03/03 08:59:36;;;;;;;55.70;35.30;;;7.30;99.90;;;;;;6138754;28;20052;-79
2023/03/03 09:02:38;;;;;;;56.50;38.43;;;7.70;99.90;;;;;;6148492;28;20082;-79
2023/03/03 09:05:41;;;;;;;48.97;32.50;;;8.10;99.90;;;;;;6164082;28;20059;-80
2023/03/03 09:08:43;;;;;;;47.90;33.65;;;8.50;99.90;;;;;;6150988;28;20054;-78
2023/03/03 09:11:46;;;;;;;48.67;34.08;;;8.80;99.90;;;;;;6163951;28;20049;-79
2023/03/03 09:14:47;;;;;;;80.80;58.95;;;9.10;99.90;;;;;;6171647;28;20046;-79
2023/03/03 09:17:50;;;;;;;62.33;47.47;;;9.40;99.90;;;;;;6171913;28;20076;-80
2023/03/03 09:20:56;;;;;;;47.13;32.70;;;9.60;99.90;;;;;;6172409;28;20063;-79
2023/03/03 09:23:58;;;;;;;48.30;31.52;;;9.60;99.90;;;;;;6171458;28;20061;-79
2023/03/03 09:27:01;;;;;;;42.75;30.02;;;9.50;99.20;;;;;;6163984;28;20047;-79
2023/03/03 09:30:16;;;;;;;47.78;29.33;;;9.50;98.80;;;;;;6149965;28;20057;-79
2023/03/03 09:33:28;;;;;;;45.75;31.92;;;9.60;98.30;;;;;;6147514;28;20046;-79
2023/03/03 09:36:37;;;;;;;47.00;31.95;;;9.80;97.50;;;;;;6173347;28;20415;-79
2023/03/03 09:39:38;;;;;;;42.83;28.20;;;10.00;97.30;;;;;;6159689;28;20047;-79
2023/03/03 09:43:02;;;;;;;43.47;30.15;;;10.30;96.80;;;;;;6151258;28;20039;-80
2023/03/03 09:46:15;;;;;;;34.78;25.25;;;10.60;95.40;;;;;;6150039;28;20051;-79
2023/03/03 09:49:23;;;;;;;35.33;26.67;;;10.70;95.00;;;;;;6169247;28;20062;-79
2023/03/03 09:52:37;;;;;;;42.72;28.02;;;10.70;94.20;;;;;;6165587;28;20047;-79
2023/03/03 09:55:48;;;;;;;49.47;29.40;;;10.90;93.50;;;;;;6168509;28;20054;-78
2023/03/03 09:59:13;;;;;;;35.00;25.40;;;11.00;93.00;;;;;;6170999;28;21421;-79
2023/03/03 10:02:35;;;;;;;39.60;25.08;;;11.20;92.40;;;;;;6170244;28;20062;-79
2023/03/03 10:05:47;;;;;;;45.20;29.23;;;11.10;91.30;;;;;;6167537;28;20054;-80
2023/03/03 10:09:17;;;;;;;38.30;26.05;;;11.20;90.90;;;;;;6171325;28;20054;-80
2023/03/03 10:12:26;;;;;;;41.55;29.55;;;11.10;89.90;;;;;;6161549;28;20055;-79
2023/03/03 10:15:38;;;;;;;49.78;38.10;;;11.10;89.80;;;;;;6146106;28;20054;-79
2023/03/03 10:18:45;;;;;;;41.25;28.23;;;11.30;88.50;;;;;;6144842;28;21360;-79
2023/03/03 10:21:52;;;;;;;42.30;27.60;;;11.30;88.50;;;;;;6164525;28;20058;-78
2023/03/03 10:25:18;;;;;;;45.50;28.23;;;11.50;88.40;;;;;;6134421;28;20060;-79
2023/03/03 10:28:35;;;;;;;40.17;26.67;;;11.90;87.50;;;;;;6143823;28;20055;-80
2023/03/03 10:31:58;;;;;;;38.00;23.48;;;12.40;86.30;;;;;;6158075;28;20050;-79
2023/03/03 10:35:28;;;;;;;39.63;26.45;;;12.40;83.80;;;;;;6152378;28;20044;-78
2023/03/03 10:38:42;;;;;;;32.33;24.73;;;12.10;82.30;;;;;;6134205;28;20059;-79
2023/03/03 10:41:59;;;;;;;37.72;26.00;;;12.10;82.60;;;;;;6168943;28;20063;-79
2023/03/03 10:45:34;;;;;;;33.75;23.25;;;12.40;82.40;;;;;;6169287;28;20058;-79
2023/03/03 10:48:49;;;;;;;32.53;23.48;;;12.90;80.40;;;;;;6175916;28;20046;-80
2023/03/03 10:52:06;;;;;;;38.00;24.80;;;13.20;79.70;;;;;;6194012;28;20050;-78
2023/03/03 10:55:25;;;;;;;30.40;23.13;;;13.30;77.10;;;;;;6193942;28;20069;-79
2023/03/03 10:58:41;;;;;;;35.13;24.70;;;13.10;78.30;;;;;;6192426;28;20043;-79
2023/03/03 11:01:53;;;;;;;32.35;25.15;;;13.40;77.60;;;;;;6192728;28;20050;-79
2023/03/03 11:05:05;;;;;;;38.55;23.67;;;13.60;76.30;;;;;;6196797;28;20073;-79
2023/03/03 11:08:12;;;;;;;37.38;25.98;;;13.90;75.60;;;;;;6194362;28;20042;-79
2023/03/03 11:11:21;;;;;;;30.93;25.60;;;14.30;75.90;;;;;;6193478;28;20054;-79
2023/03/03 11:14:33;;;;;;;36.95;24.80;;;14.60;73.90;;;;;;6195350;28;20050;-79
2023/03/03 11:17:49;;;;;;;37.70;24.90;;;14.40;73.00;;;;;;6197096;28;20078;-79
2023/03/03 11:20:57;;;;;;;32.08;25.45;;;14.60;72.90;;;;;;6196477;28;20146;-79
2023/03/03 11:24:09;;;;;;;31.42;23.70;;;14.90;72.10;;;;;;6195322;28;20054;-79
2023/03/03 11:27:30;;;;;;;32.63;23.45;;;14.90;71.60;;;;;;6195292;28;20050;-79
2023/03/03 11:30:48;;;;;;;36.67;24.50;;;14.90;70.30;;;;;;6198431;28;20054;-79
2023/03/03 11:33:58;;;;;;;33.60;24.13;;;15.10;70.20;;;;;;6194449;28;20054;-79
2023/03/03 11:37:07;;;;;;;33.13;23.38;;;15.40;70.00;;;;;;6194834;28;20069;-79
2023/03/03 11:40:17;;;;;;;33.13;23.52;;;15.70;69.10;;;;;;6194224;28;20046;-79
2023/03/03 11:43:24;;;;;;;38.25;24.70;;;15.60;67.50;;;;;;6190823;28;20424;-79
2023/03/03 11:46:34;;;;;;;31.58;24.92;;;15.40;67.40;;;;;;6193841;28;20065;-79
2023/03/03 11:49:40;;;;;;;35.08;24.13;;;15.60;67.40;;;;;;6191100;28;20046;-80
2023/03/03 11:52:49;;;;;;;36.78;27.38;;;15.90;66.70;;;;;;6194645;28;20046;-79
2023/03/03 11:55:59;;;;;;;33.85;26.13;;;16.00;66.20;;;;;;6195429;28;20050;-79
2023/03/03 11:59:20;;;;;;;30.48;24.50;;;16.10;66.10;;;;;;6191917;28;20042;-79
2023/03/03 12:02:45;;;;;;;36.05;25.88;;;16.40;65.60;;;;;;6190640;28;20590;-79
2023/03/03 12:05:56;;;;;;;35.65;26.05;;;16.50;64.00;;;;;;6192680;28;20050;-79
2023/03/03 12:09:13;;;;;;;36.92;25.48;;;16.40;64.20;;;;;;6197294;28;20050;-79
2023/03/03 12:12:20;;;;;;;35.63;24.38;;;16.70;63.80;;;;;;6196194;28;20042;-79
2023/03/03 12:15:29;;;;;;;29.75;23.83;;;16.90;63.30;;;;;;6193318;28;20042;-79
2023/03/03 12:18:44;;;;;;;31.33;23.48;;;17.00;62.50;;;;;;6194504;28;20501;-79
2023/03/03 12:22:02;;;;;;;32.97;24.98;;;17.00;62.30;;;;;;6192601;28;20054;-80
2023/03/03 12:25:20;;;;;;;29.85;23.48;;;17.10;61.70;;;;;;6195494;28;20061;-80
2023/03/03 12:28:25;;;;;;;33.83;24.57;;;17.10;61.20;;;;;;6194125;28;20038;-79
2023/03/03 12:31:40;;;;;;;32.67;25.38;;;17.30;61.30;;;;;;6186398;28;20054;-80
2023/03/03 12:34:51;;;;;;;34.28;23.63;;;17.30;59.90;;;;;;6183616;28;20062;-78
2023/03/03 12:37:59;;;;;;;33.53;23.90;;;17.00;60.60;;;;;;6191227;28;20058;-79
2023/03/03 12:41:07;;;;;;;33.47;25.52;;;17.10;60.30;;;;;;6191586;28;20069;-79
2023/03/03 12:44:18;;;;;;;33.40;25.17;;;17.20;60.30;;;;;;6198635;28;20046;-79
2023/03/03 12:47:27;;;;;;;34.25;23.98;;;17.50;59.90;;;;;;6200856;28;20050;-79
2023/03/03 12:50:41;;;;;;;35.40;25.55;;;17.70;59.30;;;;;;6197355;28;20046;-79
2023/03/03 12:54:07;;;;;;;31.85;23.30;;;17.80;58.70;;;;;;6194845;28;20065;-78
2023/03/03 12:57:19;;;;;;;31.83;24.15;;;17.60;57.70;;;;;;6193261;28;20060;-78
2023/03/03 13:00:43;;;;;;;30.83;25.15;;;17.30;58.50;;;;;;6189104;28;20050;-78
2023/03/03 13:03:50;;;;;;;31.33;25.38;;;17.30;58.40;;;;;;6187959;28;20053;-79
2023/03/03 13:06:59;;;;;;;30.45;24.65;;;17.40;59.10;;;;;;6193011;28;20184;-78
2023/03/03 13:10:13;;;;;;;32.20;24.45;;;17.50;58.90;;;;;;6186890;28;20054;-78
2023/03/03 13:13:23;;;;;;;31.77;25.98;;;17.80;58.20;;;;;;6191546;28;20515;-78
2023/03/03 13:16:31;;;;;;;37.25;27.90;;;18.10;57.50;;;;;;6191838;28;20058;-78
2023/03/03 13:19:35;;;;;;;;;;;18.20;57.10;;;;;;6189650;28;20057;-78
2023/03/03 13:22:46;;;;;;;33.58;24.90;;;18.40;57.60;;;;;;6190112;28;19928;-78
2023/03/03 13:25:52;;;;;;;33.58;25.10;;;18.20;56.80;;;;;;6199120;28;20039;-79
2023/03/03 13:29:04;;;;;;;30.77;23.85;;;18.10;56.70;;;;;;6198837;28;20050;-80
2023/03/03 13:32:14;;;;;;;34.88;26.67;;;18.00;56.60;;;;;;6198098;28;20042;-79
2023/03/03 13:35:29;;;;;;;29.45;23.33;;;18.00;56.20;;;;;;6193604;28;20519;-81
2023/03/03 13:38:35;;;;;;;37.58;25.35;;;18.10;56.40;;;;;;6194401;28;20046;-80
2023/03/03 13:41:44;;;;;;;33.22;26.13;;;18.20;56.30;;;;;;6197797;28;20061;-79
2023/03/03 13:44:49;;;;;;;35.75;24.83;;;18.30;56.00;;;;;;6198619;28;20042;-78
2023/03/03 13:48:00;;;;;;;31.60;24.45;;;18.20;55.60;;;;;;6194626;28;20058;-79
2023/03/03 13:51:09;;;;;;;36.30;25.88;;;18.20;55.60;;;;;;6191149;28;20050;-78
2023/03/03 13:54:27;;;;;;;39.33;26.83;;;18.00;55.50;;;;;;6190688;28;20069;-78
2023/03/03 13:57:45;;;;;;;37.83;27.80;;;18.00;55.50;;;;;;6191076;28;20042;-78
2023/03/03 14:00:58;;;;;;;36.95;25.33;;;18.20;55.60;;;;;;6193628;28;20100;-78
2023/03/03 14:04:11;;;;;;;35.47;27.50;;;18.50;55.30;;;;;;6188639;28;20046;-78
2023/03/03 14:07:17;;;;;;;40.25;31.48;;;18.50;55.00;;;;;;6193421;28;20486;-78
2023/03/03 14:10:25;;;;;;;34.20;25.58;;;18.50;55.00;;;;;;6190051;28;20154;-77
2023/03/03 14:13:35;;;;;;;37.25;28.35;;;18.50;54.90;;;;;;6185375;28;20054;-78
2023/03/03 14:16:50;;;;;;;35.88;26.83;;;18.50;54.70;;;;;;6190076;28;20054;-77
2023/03/03 14:20:02;;;;;;;35.53;27.23;;;18.70;54.30;;;;;;6187381;28;20053;-78
2023/03/03 14:23:12;;;;;;;32.53;24.02;;;18.70;54.50;;;;;;6183797;28;20039;-78
2023/03/03 14:26:15;;;;;;;41.10;26.92;;;18.80;55.30;;;;;;6189752;28;20042;-78
2023/03/03 14:29:29;;;;;;;36.70;27.98;;;18.70;54.60;;;;;;6190336;28;20053;-78
2023/03/03 14:32:31;;;;;;;36.58;26.85;;;18.50;54.00;;;;;;6193703;28;20053;-78
2023/03/03 14:35:35;;;;;;;43.63;39.10;;;18.40;54.00;;;;;;6195072;28;20050;-78
2023/03/03 14:38:41;;;;;;;37.50;29.70;;;18.40;54.30;;;;;;6196700;28;20057;-79
2023/03/03 14:41:44;;;;;;;37.95;28.35;;;18.30;54.30;;;;;;6199244;28;20073;-78
2023/03/03 14:44:54;;;;;;;36.25;28.48;;;18.30;54.20;;;;;;6198220;28;20047;-78
2023/03/03 14:47:56;;;;;;;37.15;29.45;;;18.20;54.20;;;;;;6196771;28;20165;-77
2023/03/03 14:51:03;;;;;;;42.15;30.02;;;18.20;54.40;;;;;;6197880;28;20050;-78
2023/03/03 14:54:11;;;;;;;38.25;28.95;;;18.10;54.30;;;;;;6202600;28;20112;-78
2023/03/03 14:57:16;;;;;;;36.55;25.77;;;18.10;54.00;;;;;;6190090;28;20049;-79
2023/03/03 15:00:31;;;;;;;59.28;31.05;;;17.90;54.20;;;;;;6192048;28;20045;-80
2023/03/03 15:03:37;;;;;;;39.08;27.08;;;17.80;54.30;;;;;;6186879;28;20572;-80
2023/03/03 15:06:42;;;;;;;41.58;27.83;;;17.50;54.70;;;;;;6190180;28;20093;-78
2023/03/03 15:09:49;;;;;;;40.22;30.45;;;17.50;54.50;;;;;;6189726;28;20043;-78
2023/03/03 15:12:52;;;;;;;38.60;26.92;;;17.40;54.60;;;;;;6187856;28;20093;-78
2023/03/03 15:16:04;;;;;;;42.50;29.35;;;17.50;54.80;;;;;;6187872;28;20053;-78
2023/03/03 15:19:20;;;;;;;39.55;29.23;;;17.70;54.60;;;;;;6188128;28;20038;-78
2023/03/03 15:22:50;;;;;;;38.63;29.15;;;17.50;54.50;;;;;;6190534;28;20047;-79
2023/03/03 15:25:59;;;;;;;40.38;30.30;;;17.30;55.00;;;;;;6191931;28;20160;-78
2023/03/03 15:29:16;;;;;;;36.08;28.00;;;17.30;54.80;;;;;;6193674;28;20081;-78
2023/03/03 15:32:24;;;;;;;38.42;28.10;;;17.00;55.00;;;;;;6192641;28;20042;-78
2023/03/03 15:35:36;;;;;;;41.33;28.60;;;16.50;55.20;;;;;;6195492;28;20042;-79
2023/03/03 15:38:49;;;;;;;42.55;29.77;;;15.90;56.00;;;;;;6192922;28;20042;-78
2023/03/03 15:42:02;;;;;;;38.95;28.52;;;15.40;56.60;;;;;;6190608;28;20050;-78
2023/03/03 15:45:14;;;;;;;38.20;28.40;;;15.00;57.40;;;;;;6191049;28;20158;-78
2023/03/03 15:48:38;;;;;;;39.70;27.60;;;14.70;58.10;;;;;;6192231;28;23621;-78
2023/03/03 15:52:01;;;;;;;39.38;25.13;;;14.20;58.60;;;;;;6184091;28;20058;-78